createdAt,value
2018-09-15T00:03:11.752Z,18.60
2018-09-15T00:08:06.900Z,18.80
2018-09-15T00:10:34.556Z,18.70
2018-09-15T00:13:02.110Z,18.70
2018-09-15T00:15:29.657Z,18.50
2018-09-15T00:17:58.363Z,18.20
2018-09-15T00:20:25.980Z,18.00
2018-09-15T00:22:53.584Z,18.00
2018-09-15T00:25:21.184Z,18.10
2018-09-15T00:27:48.735Z,18.20
2018-09-15T00:30:16.391Z,18.10
2018-09-15T00:32:43.915Z,18.10
2018-09-15T00:35:11.544Z,18.10
2018-09-15T00:37:39.067Z,18.10
2018-09-15T00:40:06.660Z,18.10
2018-09-15T00:42:34.213Z,18.00
2018-09-15T00:45:01.890Z,18.10
2018-09-15T00:47:29.503Z,18.00
2018-09-15T00:49:57.043Z,18.00
2018-09-15T00:52:24.686Z,17.90
2018-09-15T00:54:52.173Z,17.80
2018-09-15T00:57:19.781Z,17.80
2018-09-15T00:59:47.889Z,17.80
2018-09-15T01:02:15.545Z,17.70
2018-09-15T01:04:43.310Z,17.70
2018-09-15T01:07:10.768Z,17.70
2018-09-15T01:09:38.234Z,17.70
2018-09-15T01:12:05.767Z,17.70
2018-09-15T01:14:33.233Z,17.70
2018-09-15T01:17:00.709Z,17.70
2018-09-15T01:19:28.313Z,17.70
2018-09-15T01:21:55.919Z,17.60
2018-09-15T01:24:23.411Z,17.50
2018-09-15T01:26:50.909Z,17.50
2018-09-15T01:29:18.491Z,17.40
2018-09-15T01:34:13.403Z,17.30
2018-09-15T01:36:40.973Z,17.20
2018-09-15T01:39:09.492Z,17.20
2018-09-15T01:41:37.553Z,17.20
2018-09-15T01:44:05.040Z,17.30
2018-09-15T01:46:32.469Z,17.20
2018-09-15T01:48:59.947Z,17.20
2018-09-15T01:51:28.121Z,17.10
2018-09-15T01:53:55.843Z,17.00
2018-09-15T01:56:23.477Z,17.00
2018-09-15T01:58:51.064Z,16.70
2018-09-15T02:01:18.569Z,16.70
2018-09-15T02:03:46.050Z,16.60
2018-09-15T02:06:13.541Z,16.40
2018-09-15T02:08:41.104Z,16.40
2018-09-15T02:11:08.596Z,16.20
2018-09-15T02:13:36.112Z,16.30
2018-09-15T02:16:03.612Z,16.20
2018-09-15T02:18:31.088Z,16.30
2018-09-15T02:20:58.632Z,16.40
2018-09-15T02:23:26.113Z,16.30
2018-09-15T02:25:53.575Z,16.40
2018-09-15T02:28:21.241Z,16.40
2018-09-15T02:30:49.378Z,16.40
2018-09-15T02:33:17.422Z,16.60
2018-09-15T02:35:45.665Z,16.60
2018-09-15T02:38:14.437Z,16.50
2018-09-15T02:43:09.441Z,16.40
2018-09-15T02:45:36.976Z,16.40
2018-09-15T02:48:04.525Z,16.30
2018-09-15T02:50:32.902Z,16.30
2018-09-15T02:53:00.454Z,16.30
2018-09-15T02:55:27.965Z,16.20
2018-09-15T02:57:55.517Z,16.20
2018-09-15T03:00:23.021Z,16.20
2018-09-15T03:02:50.692Z,16.20
2018-09-15T03:05:18.188Z,16.20
2018-09-15T03:07:45.687Z,16.20
2018-09-15T03:10:13.195Z,16.30
2018-09-15T03:12:41.136Z,16.20
2018-09-15T03:15:08.740Z,16.10
2018-09-15T03:17:36.292Z,16.00
2018-09-15T03:20:04.766Z,16.20
2018-09-15T03:22:32.383Z,16.10
2018-09-15T03:27:27.912Z,16.10
2018-09-15T03:29:55.404Z,16.00
2018-09-15T03:32:24.052Z,15.90
2018-09-15T03:34:51.549Z,15.90
2018-09-15T03:37:19.185Z,15.90
2018-09-15T03:39:46.681Z,15.90
2018-09-15T03:42:14.126Z,15.90
2018-09-15T03:44:41.584Z,15.90
2018-09-15T03:47:09.148Z,15.60
2018-09-15T03:49:36.615Z,15.60
2018-09-15T03:52:04.148Z,15.60
2018-09-15T03:54:31.619Z,15.60
2018-09-15T03:56:59.256Z,15.80
2018-09-15T03:59:26.853Z,15.70
2018-09-15T04:01:54.345Z,15.60
2018-09-15T04:06:49.345Z,15.70
2018-09-15T04:09:16.822Z,15.70
2018-09-15T04:11:44.304Z,15.60
2018-09-15T04:14:11.836Z,15.80
2018-09-15T04:16:39.284Z,15.80
2018-09-15T04:26:30.622Z,16.00
2018-09-15T04:31:25.662Z,16.10
2018-09-15T04:33:53.325Z,16.00
2018-09-15T04:36:20.818Z,15.90
2018-09-15T04:38:48.370Z,16.00
2018-09-15T04:41:15.977Z,16.00
2018-09-15T04:43:44.156Z,16.30
2018-09-15T04:48:39.096Z,16.10
2018-09-15T04:51:06.888Z,16.20
2018-09-15T04:53:34.359Z,16.20
2018-09-15T04:58:30.300Z,16.00
2018-09-15T05:00:57.868Z,15.90
2018-09-15T05:03:25.634Z,15.80
2018-09-15T05:05:53.268Z,15.80
2018-09-15T05:08:23.244Z,15.80
2018-09-15T05:10:50.735Z,15.90
2018-09-15T05:13:18.807Z,15.90
2018-09-15T05:15:46.444Z,16.10
2018-09-15T05:18:13.958Z,16.20
2018-09-15T05:20:42.182Z,16.10
2018-09-15T05:23:09.970Z,16.20
2018-09-15T05:28:05.214Z,16.20
2018-09-15T05:30:33.407Z,16.20
2018-09-15T05:33:01.220Z,16.20
2018-09-15T05:35:28.902Z,16.00
2018-09-15T05:37:56.363Z,15.90
2018-09-15T05:40:23.985Z,16.00
2018-09-15T05:42:51.533Z,15.90
2018-09-15T05:45:18.990Z,16.00
2018-09-15T05:47:46.967Z,16.20
2018-09-15T05:50:14.573Z,16.20
2018-09-15T05:52:42.814Z,16.10
2018-09-15T05:55:10.333Z,16.10
2018-09-15T05:57:37.906Z,16.10
2018-09-15T06:00:05.995Z,16.30
2018-09-15T06:02:33.631Z,16.40
2018-09-15T06:05:01.201Z,16.40
2018-09-15T06:07:29.798Z,16.40
2018-09-15T06:09:57.323Z,16.40
2018-09-15T06:12:24.885Z,16.30
2018-09-15T06:14:52.409Z,16.40
2018-09-15T06:17:20.168Z,16.40
2018-09-15T06:22:15.120Z,16.40
2018-09-15T06:24:42.672Z,16.40
2018-09-15T06:27:10.106Z,16.40
2018-09-15T06:29:37.697Z,16.20
2018-09-15T06:34:33.646Z,16.40
2018-09-15T06:37:01.164Z,16.40
2018-09-15T06:39:28.926Z,16.40
2018-09-15T06:41:56.655Z,16.40
2018-09-15T06:44:24.221Z,16.40
2018-09-15T06:46:52.414Z,16.50
2018-09-15T06:49:19.910Z,16.70
2018-09-15T06:51:47.465Z,16.80
2018-09-15T06:54:15.041Z,17.00
2018-09-15T06:56:42.625Z,17.10
2018-09-15T06:59:10.136Z,17.20
2018-09-15T07:01:39.980Z,17.70
2018-09-15T07:04:09.642Z,17.80
2018-09-15T07:06:37.415Z,18.10
2018-09-15T07:09:07.738Z,18.10
2018-09-15T07:11:35.355Z,18.40
2018-09-15T07:14:03.038Z,18.40
2018-09-15T07:16:31.225Z,18.40
2018-09-15T07:18:58.815Z,18.50
2018-09-15T07:21:26.386Z,18.60
2018-09-15T07:23:54.052Z,18.70
2018-09-15T07:26:21.586Z,19.10
2018-09-15T07:28:49.168Z,19.40
2018-09-15T07:31:16.755Z,19.30
2018-09-15T07:33:44.225Z,19.90
2018-09-15T07:36:11.805Z,20.50
2018-09-15T07:38:39.471Z,20.60
2018-09-15T07:41:06.990Z,20.70
2018-09-15T07:43:34.703Z,20.80
2018-09-15T07:46:02.376Z,21.20
2018-09-15T07:48:29.863Z,21.20
2018-09-15T07:50:57.456Z,21.30
2018-09-15T07:53:25.212Z,21.10
2018-09-15T07:55:52.820Z,21.40
2018-09-15T07:58:20.297Z,21.50
2018-09-15T08:00:47.913Z,21.60
2018-09-15T08:03:15.549Z,21.50
2018-09-15T08:05:43.236Z,21.70
2018-09-15T08:08:10.705Z,22.00
2018-09-15T08:10:38.436Z,22.20
2018-09-15T08:13:06.232Z,22.20
2018-09-15T08:15:33.783Z,22.20
2018-09-15T08:18:01.292Z,22.20
2018-09-15T08:20:28.779Z,22.20
2018-09-15T08:22:56.413Z,22.20
2018-09-15T08:25:24.182Z,22.20
2018-09-15T08:27:51.695Z,22.60
2018-09-15T08:30:19.507Z,23.10
2018-09-15T08:32:48.733Z,23.40
2018-09-15T08:37:45.453Z,23.40
2018-09-15T08:42:42.347Z,24.20
2018-09-15T08:45:10.182Z,24.30
2018-09-15T08:47:38.944Z,24.60
2018-09-15T08:52:34.806Z,25.10
2018-09-15T08:55:04.197Z,25.30
2018-09-15T08:59:59.529Z,25.70
2018-09-15T09:02:27.201Z,25.40
2018-09-15T09:04:55.610Z,25.60
2018-09-15T09:07:23.305Z,25.90
2018-09-15T09:09:50.893Z,26.00
2018-09-15T09:12:18.467Z,25.10
2018-09-15T09:17:13.847Z,25.60
2018-09-15T09:19:41.485Z,25.60
2018-09-15T09:22:09.147Z,25.90
2018-09-15T09:24:36.673Z,26.40
2018-09-15T09:27:04.211Z,26.50
2018-09-15T09:29:31.766Z,26.80
2018-09-15T09:34:27.093Z,27.20
2018-09-15T09:36:54.693Z,27.20
2018-09-15T09:39:22.406Z,27.30
2018-09-15T09:54:49.640Z,27.40
2018-09-15T09:57:17.260Z,26.10
2018-09-15T09:59:44.937Z,26.00
2018-09-15T10:02:13.620Z,26.10
2018-09-15T10:04:41.545Z,26.60
2018-09-15T10:09:38.501Z,26.60
2018-09-15T10:12:06.842Z,26.40
2018-09-15T10:14:34.563Z,27.00
2018-09-15T10:19:37.384Z,28.30
2018-09-15T10:22:04.988Z,28.60
2018-09-15T10:24:32.740Z,28.20
2018-09-15T10:27:01.751Z,27.90
2018-09-15T10:29:29.729Z,27.70
2018-09-15T10:31:57.371Z,27.90
2018-09-15T10:39:20.572Z,27.30
2018-09-15T10:41:48.717Z,27.00
2018-09-15T10:44:17.396Z,26.60
2018-09-15T10:46:45.082Z,26.20
2018-09-15T10:56:36.685Z,26.60
2018-09-15T11:06:26.705Z,25.70
2018-09-15T11:08:55.749Z,24.90
2018-09-15T11:11:23.556Z,25.70
2018-09-15T11:21:13.541Z,25.50
2018-09-15T11:23:41.052Z,25.50
2018-09-15T11:26:08.664Z,25.40
2018-09-15T11:31:03.676Z,24.90
2018-09-15T11:33:31.302Z,25.00
2018-09-15T11:35:58.949Z,24.60
2018-09-15T11:43:22.388Z,24.90
2018-09-15T11:45:50.628Z,24.50
2018-09-15T11:48:18.144Z,24.10
2018-09-15T11:50:45.759Z,24.80
2018-09-15T11:58:08.262Z,24.70
2018-09-15T12:03:06.324Z,23.70
2018-09-15T12:08:01.441Z,23.40
2018-09-15T12:10:28.972Z,24.00
2018-09-15T12:12:56.808Z,23.50
2018-09-15T12:15:24.370Z,23.40
2018-09-15T12:30:09.600Z,23.60
2018-09-15T12:32:37.478Z,24.30
2018-09-15T12:35:05.382Z,23.70
2018-09-15T12:49:50.504Z,25.30
2018-09-15T12:57:15.530Z,26.10
2018-09-15T13:07:10.532Z,25.20
2018-09-15T13:09:39.194Z,24.90
2018-09-15T13:12:07.162Z,25.30
2018-09-15T13:14:34.718Z,25.20
2018-09-15T13:17:02.282Z,24.80
2018-09-15T13:21:57.353Z,24.40
2018-09-15T13:24:24.850Z,24.50
2018-09-15T13:26:52.446Z,23.90
2018-09-15T13:29:20.030Z,23.80
2018-09-15T13:31:47.826Z,24.20
2018-09-15T13:34:15.465Z,24.30
2018-09-15T13:36:43.131Z,24.30
2018-09-15T13:39:11.518Z,24.40
2018-09-15T13:41:39.093Z,24.40
2018-09-15T13:44:06.956Z,24.80
2018-09-15T13:46:34.623Z,24.90
2018-09-15T13:49:02.202Z,25.20
2018-09-15T13:51:29.777Z,25.30
2018-09-15T13:53:57.255Z,25.40
2018-09-15T13:56:24.877Z,25.30
2018-09-15T13:58:52.578Z,25.00
2018-09-15T14:01:20.080Z,24.70
2018-09-15T14:03:47.829Z,24.20
2018-09-15T14:06:15.443Z,24.00
2018-09-15T14:08:43.043Z,24.00
2018-09-15T14:11:10.751Z,24.10
2018-09-15T14:13:38.408Z,24.20
2018-09-15T14:16:06.017Z,24.30
2018-09-15T14:18:33.641Z,24.40
2018-09-15T14:21:01.204Z,24.50
2018-09-15T14:23:28.783Z,24.50
2018-09-15T14:25:56.390Z,24.40
2018-09-15T14:28:23.935Z,24.40
2018-09-15T14:30:51.447Z,24.30
2018-09-15T14:33:18.989Z,24.20
2018-09-15T14:35:46.550Z,24.20
2018-09-15T14:40:41.513Z,23.90
2018-09-15T14:43:09.051Z,23.80
2018-09-15T14:45:36.591Z,23.80
2018-09-15T14:48:04.086Z,23.70
2018-09-15T14:50:32.493Z,23.40
2018-09-15T14:53:01.207Z,23.40
2018-09-15T14:55:32.890Z,23.40
2018-09-15T14:58:00.466Z,23.20
2018-09-15T15:00:33.207Z,23.20
2018-09-15T15:03:03.824Z,23.30
2018-09-15T15:05:31.358Z,23.40
2018-09-15T15:07:59.032Z,23.30
2018-09-15T15:10:26.503Z,23.20
2018-09-15T15:12:53.956Z,23.10
2018-09-15T15:17:49.201Z,23.00
2018-09-15T15:20:16.816Z,23.00
2018-09-15T15:22:44.452Z,23.00
2018-09-15T15:25:12.017Z,23.10
2018-09-15T15:27:39.507Z,23.00
2018-09-15T15:30:07.165Z,23.00
2018-09-15T15:32:35.036Z,22.90
2018-09-15T15:35:03.221Z,22.90
2018-09-15T15:37:31.660Z,22.90
2018-09-15T15:39:59.031Z,22.90
2018-09-15T15:42:26.631Z,22.90
2018-09-15T15:44:54.539Z,22.90
2018-09-15T15:47:23.345Z,22.90
2018-09-15T15:49:50.852Z,22.80
2018-09-15T15:52:20.416Z,22.70
2018-09-15T15:54:49.190Z,22.70
2018-09-15T15:57:16.858Z,22.70
2018-09-15T15:59:44.959Z,22.60
2018-09-15T16:02:12.506Z,22.70
2018-09-15T16:07:08.232Z,22.60
2018-09-15T16:09:45.810Z,22.60
2018-09-15T16:17:09.837Z,22.60
2018-09-15T16:19:38.618Z,22.60
2018-09-15T16:22:08.053Z,22.50
2018-09-15T16:24:36.109Z,22.50
2018-09-15T16:27:04.458Z,22.40
2018-09-15T16:29:32.113Z,22.40
2018-09-15T16:31:59.763Z,22.30
2018-09-15T16:34:28.654Z,22.20
2018-09-15T16:36:56.528Z,22.10
2018-09-15T16:41:51.537Z,22.10
2018-09-15T16:44:19.123Z,22.00
2018-09-15T16:46:46.791Z,22.00
2018-09-15T16:49:14.749Z,22.00
2018-09-15T16:51:43.551Z,22.00
2018-09-15T16:54:12.075Z,22.00
2018-09-15T16:56:39.636Z,22.00
2018-09-15T17:01:37.721Z,21.90
2018-09-15T17:04:05.967Z,21.90
2018-09-15T17:06:36.999Z,21.90
2018-09-15T17:09:07.715Z,21.90
2018-09-15T17:11:36.356Z,22.00
2018-09-15T17:14:03.865Z,21.80
2018-09-15T17:16:31.463Z,21.70
2018-09-15T17:18:59.492Z,21.70
2018-09-15T17:26:22.835Z,21.30
2018-09-15T17:28:50.803Z,21.30
2018-09-15T17:31:19.918Z,21.30
2018-09-15T17:38:45.416Z,20.80
2018-09-15T17:41:13.538Z,20.60
2018-09-15T17:43:41.322Z,20.60
2018-09-15T17:46:08.945Z,20.60
2018-09-15T17:48:37.158Z,20.40
2018-09-15T17:51:05.032Z,20.40
2018-09-15T17:53:32.567Z,20.20
2018-09-15T17:56:00.137Z,20.20
2018-09-15T17:58:27.866Z,20.10
2018-09-15T18:00:55.521Z,20.10
2018-09-15T18:03:23.531Z,20.00
2018-09-15T18:05:51.125Z,19.90
2018-09-15T18:08:18.631Z,19.30
2018-09-15T18:10:46.782Z,20.00
2018-09-15T18:13:14.351Z,20.00
2018-09-15T18:15:41.907Z,20.00
2018-09-15T18:18:09.540Z,19.90
2018-09-15T18:20:37.081Z,19.90
2018-09-15T18:23:05.305Z,20.00
2018-09-15T18:25:33.021Z,19.90
2018-09-15T18:28:02.023Z,19.80
2018-09-15T18:30:30.200Z,19.80
2018-09-15T18:32:57.818Z,19.70
2018-09-15T18:37:52.882Z,19.80
2018-09-15T18:40:20.532Z,19.80
2018-09-15T18:42:48.673Z,19.70
2018-09-15T18:45:16.258Z,19.90
2018-09-15T18:47:44.618Z,19.80
2018-09-15T18:50:12.367Z,19.80
2018-09-15T18:52:39.909Z,19.70
2018-09-15T18:55:07.768Z,19.70
2018-09-15T18:57:35.354Z,19.60
2018-09-15T19:00:03.580Z,19.60
2018-09-15T19:02:31.295Z,19.60
2018-09-15T19:04:59.017Z,19.60
2018-09-15T19:07:26.725Z,19.40
2018-09-15T19:09:54.642Z,19.50
2018-09-15T19:12:37.707Z,19.50
2018-09-15T19:15:05.466Z,19.40
2018-09-15T19:17:32.967Z,19.40
2018-09-15T19:20:00.557Z,19.50
2018-09-15T19:22:28.665Z,19.50
2018-09-15T19:29:58.058Z,19.40
2018-09-15T19:32:25.700Z,19.40
2018-09-15T19:34:53.145Z,19.30
2018-09-15T19:37:22.888Z,19.20
2018-09-15T19:39:52.711Z,19.20
2018-09-15T19:42:22.071Z,19.10
2018-09-15T19:44:52.997Z,19.00
2018-09-15T19:49:49.372Z,19.00
2018-09-15T19:52:17.432Z,18.90
2018-09-15T19:54:49.351Z,18.80
2018-09-15T19:57:20.288Z,18.80
2018-09-15T19:59:47.954Z,18.80
2018-09-15T20:04:48.928Z,18.80
2018-09-15T20:07:21.288Z,18.80
2018-09-15T20:09:49.155Z,18.90
2018-09-15T20:12:19.008Z,18.90
2018-09-15T20:14:47.479Z,18.80
2018-09-15T20:17:16.012Z,18.70
2018-09-15T20:19:44.986Z,18.70
2018-09-15T20:22:15.751Z,18.70
2018-09-15T20:24:44.808Z,18.80
2018-09-15T20:27:14.004Z,18.80
2018-09-15T20:32:09.388Z,18.80
2018-09-15T20:34:42.014Z,18.70
2018-09-15T20:39:38.852Z,18.50
2018-09-15T20:47:05.515Z,18.30
2018-09-15T20:49:33.213Z,18.30
2018-09-15T20:52:00.847Z,18.40
2018-09-15T20:54:28.569Z,18.40
2018-09-15T20:56:56.400Z,18.40
2018-09-15T20:59:23.894Z,18.20
2018-09-15T21:01:52.440Z,18.30
2018-09-15T21:04:19.981Z,18.30
2018-09-15T21:06:47.984Z,18.30
2018-09-15T21:09:15.600Z,18.30
2018-09-15T21:11:43.375Z,18.30
2018-09-15T21:14:11.464Z,18.10
2018-09-15T21:19:06.862Z,17.90
2018-09-15T21:21:34.415Z,17.90
2018-09-15T21:24:02.272Z,17.90
2018-09-15T21:26:29.752Z,17.90
2018-09-15T21:28:57.374Z,17.90
2018-09-15T21:31:25.372Z,18.00
2018-09-15T21:33:52.977Z,18.10
2018-09-15T21:36:20.668Z,18.10
2018-09-15T21:38:48.255Z,18.10
2018-09-15T21:41:16.063Z,18.10
2018-09-15T21:43:43.593Z,18.10
2018-09-15T21:46:11.550Z,18.10
2018-09-15T21:48:39.607Z,18.10
2018-09-15T21:51:07.251Z,18.10
2018-09-15T21:53:35.113Z,18.10
2018-09-15T21:56:02.621Z,18.00
2018-09-15T21:58:30.248Z,18.00
2018-09-15T22:01:02.543Z,17.90
2018-09-15T22:03:30.605Z,17.90
2018-09-15T22:05:59.444Z,17.70
2018-09-15T22:08:27.656Z,17.70
2018-09-15T22:10:55.281Z,17.60
2018-09-15T22:13:22.777Z,17.70
2018-09-15T22:15:50.393Z,16.60
2018-09-15T22:18:18.003Z,17.50
2018-09-15T22:20:45.496Z,17.60
2018-09-15T22:23:13.041Z,17.40
2018-09-15T22:25:40.883Z,17.30
2018-09-15T22:28:08.443Z,17.30
2018-09-15T22:30:36.202Z,17.30
2018-09-15T22:33:03.978Z,17.30
2018-09-15T22:37:59.109Z,17.60
2018-09-15T22:40:26.721Z,17.40
2018-09-15T22:42:54.364Z,17.30
2018-09-15T22:45:22.895Z,17.00
2018-09-15T22:47:50.532Z,17.00
2018-09-15T22:50:18.798Z,17.00
2018-09-15T22:52:46.434Z,17.00
2018-09-15T22:55:14.190Z,17.00
2018-09-15T22:57:41.660Z,16.90
2018-09-15T23:00:10.244Z,17.10
2018-09-15T23:02:37.819Z,17.20
2018-09-15T23:05:06.428Z,17.30
2018-09-15T23:07:34.062Z,17.50
2018-09-15T23:10:01.814Z,17.50
2018-09-15T23:12:32.254Z,17.50
2018-09-15T23:15:00.585Z,17.50
2018-09-15T23:17:28.531Z,17.40
2018-09-15T23:19:56.165Z,17.30
2018-09-15T23:22:23.771Z,17.30
2018-09-15T23:24:51.348Z,17.40
2018-09-15T23:27:19.032Z,17.20
2018-09-15T23:29:46.527Z,17.00
2018-09-15T23:37:09.409Z,17.30
2018-09-15T23:39:36.989Z,17.20
2018-09-15T23:42:04.540Z,17.10
2018-09-15T23:44:32.101Z,17.00
2018-09-15T23:46:59.563Z,16.90
2018-09-15T23:49:27.105Z,16.80
2018-09-15T23:51:55.483Z,16.80
2018-09-15T23:54:23.008Z,16.80
2018-09-15T23:56:50.539Z,17.10
2018-09-15T23:59:18.096Z,17.30
